La Guera, Western Sahara
Current Conditions -  °F | °C
As of 8:00 PM on Thursday 23 Oct 2014 (Local Time) from GQPP Reporting Station
Clear Clear  
Wind Chill: 81°   Ceiling: Unl
Heat Index: 81°   Visibility: 5mi
Dew Point: 55°   Wind: 12mph
Humidity: 42%   Direction: 330°NNW
Pressure: 29.88"   Gusts: NA
Location:  20.83°N, 17.1°W
Report Text: GQPP 232000Z 33010KT 8000 NSC 27/13 Q1012 NOSIG
Loading
Personal Weather Stations






























Interactive Weather Map
Tropical Storm Tracking
New forecast layout! Learn more

10-Day Weather Forecast

Advertisements
Track Severe Weather on mobile